Time;durP1;ratioP1;P1;durP2;ratioP2;P2;SDS_P1;SDS_P2;PMS_P1;PMS_P2;Temp;Humidity;BMP_temperature;BMP_pressure;BME280_temperature;BME280_humidity;BME280_pressure;Samples;Min_cycle;Max_cycle;Signal;HPM_P1;HPM_P2
2023/07/17 00:00:30;;;;;;;5.50;4.00;;;;;;;26.84;58.86;101800.20;107075;1263;22609;-50
2023/07/17 00:03:06;;;;;;;6.00;3.70;;;;;;;26.83;58.94;101801.13;107042;1257;25373;-49
2023/07/17 00:05:39;;;;;;;7.40;3.80;;;;;;;26.82;58.97;101798.39;107053;1257;25338;-50
2023/07/17 00:08:09;;;;;;;5.10;4.00;;;;;;;26.80;58.97;101798.14;107095;1259;25345;-49
2023/07/17 00:10:38;;;;;;;4.60;4.20;;;;;;;26.79;58.96;101797.13;106822;1265;25353;-50
2023/07/17 00:13:06;;;;;;;9.50;5.40;;;;;;;26.78;59.03;101791.00;107151;1264;25488;-49
2023/07/17 00:15:32;;;;;;;6.50;4.90;;;;;;;26.76;59.10;101791.67;107077;1256;23864;-49
2023/07/17 00:18:00;;;;;;;5.90;4.60;;;;;;;26.76;59.15;101788.89;106857;1265;25449;-49
2023/07/17 00:20:27;;;;;;;4.90;3.90;;;;;;;26.75;59.12;101790.54;106942;1266;25328;-49
2023/07/17 00:22:54;;;;;;;5.40;3.70;;;;;;;26.74;59.11;101792.02;107114;1259;25484;-50
2023/07/17 00:25:22;;;;;;;5.60;3.60;;;;;;;26.73;59.13;101790.10;107234;1257;25361;-49
2023/07/17 00:27:49;;;;;;;4.20;3.80;;;;;;;26.72;59.14;101790.36;107154;1263;22526;-49
2023/07/17 00:30:16;;;;;;;7.90;4.30;;;;;;;26.73;59.05;101790.15;107126;1267;25373;-49
2023/07/17 00:32:43;;;;;;;7.10;4.40;;;;;;;26.71;59.16;101787.79;106787;1267;25480;-50
2023/07/17 00:35:11;;;;;;;5.90;3.70;;;;;;;26.70;59.25;101788.17;106813;1269;22552;-49
2023/07/17 00:37:38;;;;;;;6.80;4.40;;;;;;;26.70;59.35;101787.17;107097;1267;25461;-49
2023/07/17 00:40:09;;;;;;;3.80;3.40;;;;;;;26.66;59.41;101791.13;107127;1252;25348;-50
2023/07/17 00:42:36;;;;;;;4.80;3.20;;;;;;;26.61;59.51;101789.71;107113;1261;24233;-49
2023/07/17 00:45:05;;;;;;;4.80;4.00;;;;;;;26.56;59.51;101790.63;107121;1262;25533;-50
2023/07/17 00:47:32;;;;;;;3.90;3.60;;;;;;;26.53;59.69;101792.46;106562;1267;22531;-49
2023/07/17 00:50:00;;;;;;;4.70;3.60;;;;;;;26.51;59.72;101791.74;107069;1262;25361;-49
2023/07/17 00:52:27;;;;;;;7.30;3.90;;;;;;;26.45;59.95;101793.95;107100;1263;25402;-50
2023/07/17 00:54:56;;;;;;;7.70;4.00;;;;;;;26.40;60.19;101791.13;107188;1256;24366;-50
2023/07/17 00:57:25;;;;;;;6.90;3.90;;;;;;;26.36;60.54;101794.61;107003;1262;25316;-50
2023/07/17 00:59:53;;;;;;;3.80;3.40;;;;;;;26.32;60.85;101793.45;106687;1271;25623;-50
2023/07/17 01:02:20;;;;;;;4.70;3.60;;;;;;;26.30;61.04;101796.58;107155;1252;25452;-49
2023/07/17 01:04:47;;;;;;;4.00;3.50;;;;;;;26.31;61.02;101789.40;106829;1256;25435;-50
2023/07/17 01:07:15;;;;;;;5.90;3.50;;;;;;;26.32;61.28;101793.06;107088;1261;22536;-50
2023/07/17 01:09:42;;;;;;;5.80;3.60;;;;;;;26.29;61.44;101796.86;107150;1256;22526;-49
2023/07/17 01:12:09;;;;;;;5.00;3.60;;;;;;;26.28;61.63;101802.64;107104;1262;25386;-49
2023/07/17 01:14:36;;;;;;;7.00;3.60;;;;;;;26.26;61.56;101802.05;107128;1256;25484;-50
2023/07/17 01:17:05;;;;;;;4.60;3.20;;;;;;;26.23;61.57;101799.41;107006;1265;25383;-49
2023/07/17 01:19:32;;;;;;;3.70;3.30;;;;;;;26.22;61.71;101799.70;106839;1266;25377;-49
2023/07/17 01:22:01;;;;;;;4.60;4.20;;;;;;;26.21;61.81;101801.20;106826;1269;25373;-50
2023/07/17 01:24:28;;;;;;;3.30;3.00;;;;;;;26.21;61.65;101800.14;106804;1255;22537;-50
2023/07/17 01:26:55;;;;;;;5.70;4.00;;;;;;;26.22;61.60;101795.25;106749;1265;25350;-49
2023/07/17 01:29:22;;;;;;;5.60;3.70;;;;;;;26.24;61.31;101796.86;106620;1263;25364;-49
2023/07/17 01:31:49;;;;;;;3.50;3.20;;;;;;;26.26;61.16;101797.82;106803;1264;25373;-49
2023/07/17 01:34:16;;;;;;;3.70;3.20;;;;;;;26.25;60.99;101798.02;106829;1261;25545;-48
2023/07/17 01:36:43;;;;;;;5.70;3.50;;;;;;;26.26;60.70;101800.10;106857;1265;25350;-49
2023/07/17 01:39:10;;;;;;;3.80;3.40;;;;;;;26.24;60.35;101802.54;106836;1266;25503;-49
2023/07/17 01:41:37;;;;;;;4.00;3.40;;;;;;;26.21;60.16;101799.59;106834;1267;25440;-50
2023/07/17 01:44:05;;;;;;;5.30;4.30;;;;;;;26.18;60.01;101800.84;106808;1258;25350;-49
2023/07/17 01:46:32;;;;;;;3.70;3.30;;;;;;;26.17;59.70;101801.67;106922;1262;25369;-49
2023/07/17 01:48:59;;;;;;;3.40;2.90;;;;;;;26.15;59.54;101807.53;107178;1264;25335;-49
2023/07/17 01:51:27;;;;;;;5.90;5.30;;;;;;;26.12;59.41;101805.56;107073;1267;25412;-50
2023/07/17 01:53:54;;;;;;;5.00;4.60;;;;;;;26.11;59.52;101798.38;107141;1256;25350;-49
2023/07/17 01:56:21;;;;;;;3.90;3.60;;;;;;;26.10;59.32;101800.70;107151;1266;25373;-50
2023/07/17 01:58:48;;;;;;;3.60;2.80;;;;;;;26.09;59.04;101801.00;106799;1266;25472;-49
2023/07/17 02:01:15;;;;;;;6.30;3.10;;;;;;;26.06;58.93;101800.29;107258;1260;25367;-49
2023/07/17 02:03:47;;;;;;;;;;;;;;;26.03;59.02;101801.52;107258;1252;25329;-50
2023/07/17 02:06:14;;;;;;;3.50;3.20;;;;;;;26.04;59.09;101804.86;107079;1253;25315;-49
2023/07/17 02:08:42;;;;;;;3.60;2.80;;;;;;;26.03;59.08;101803.86;107059;1267;25399;-50
2023/07/17 02:11:09;;;;;;;3.60;3.00;;;;;;;26.03;58.91;101803.64;106969;1262;25325;-49
2023/07/17 02:13:36;;;;;;;4.00;3.00;;;;;;;26.04;58.99;101804.49;107114;1253;25359;-49
2023/07/17 02:16:05;;;;;;;4.70;2.70;;;;;;;26.05;58.96;101806.60;107076;1263;25443;-49
2023/07/17 02:18:32;;;;;;;7.10;3.30;;;;;;;26.04;58.86;101805.59;107072;1265;25448;-49
2023/07/17 02:21:00;;;;;;;3.40;3.10;;;;;;;26.04;58.90;101803.63;107015;1263;24308;-49
2023/07/17 02:23:27;;;;;;;8.90;3.50;;;;;;;26.04;58.89;101805.55;107123;1264;25453;-49
2023/07/17 02:25:55;;;;;;;9.60;3.40;;;;;;;26.04;58.88;101808.23;106447;1262;25384;-51
2023/07/17 02:28:23;;;;;;;4.50;3.40;;;;;;;26.03;58.89;101807.98;107029;1262;25472;-49
2023/07/17 02:30:51;;;;;;;3.50;3.20;;;;;;;26.03;58.78;101811.36;107158;1257;25361;-49
2023/07/17 02:33:18;;;;;;;3.40;3.10;;;;;;;26.02;58.61;101812.52;107164;1259;25441;-49
2023/07/17 02:35:49;;;;;;;5.20;3.40;;;;;;;26.00;58.73;101808.14;107145;1252;22671;-49
2023/07/17 02:38:16;;;;;;;6.30;3.20;;;;;;;26.02;58.92;101810.89;106868;1255;25359;-49
2023/07/17 02:40:42;;;;;;;3.30;3.10;;;;;;;26.02;58.95;101809.27;106783;1268;25472;-50
2023/07/17 02:43:10;;;;;;;3.90;3.30;;;;;;;26.03;58.95;101810.29;106818;1256;25394;-49
2023/07/17 02:45:37;;;;;;;6.80;3.20;;;;;;;26.05;58.89;101811.91;106729;1273;25460;-49
2023/07/17 02:48:04;;;;;;;3.50;3.10;;;;;;;26.09;58.88;101811.13;107036;1258;25396;-49
2023/07/17 02:50:32;;;;;;;7.30;3.10;;;;;;;26.14;58.76;101814.52;106810;1267;26680;-49
2023/07/17 02:52:59;;;;;;;5.80;2.90;;;;;;;26.19;58.73;101815.56;107053;1259;25345;-49
2023/07/17 02:55:26;;;;;;;3.40;3.10;;;;;;;26.23;58.41;101813.69;107133;1264;25412;-49
2023/07/17 02:57:53;;;;;;;3.80;3.50;;;;;;;26.27;58.30;101811.40;107045;1260;25387;-50
2023/07/17 03:00:21;;;;;;;3.70;3.00;;;;;;;26.30;58.10;101809.75;107124;1256;24284;-50
2023/07/17 03:02:51;;;;;;;3.90;3.10;;;;;;;26.34;57.91;101812.37;106915;1264;24273;-50
2023/07/17 03:05:19;;;;;;;8.50;3.70;;;;;;;26.36;57.82;101808.80;106735;1262;25457;-51
2023/07/17 03:07:47;;;;;;;9.70;3.70;;;;;;;26.38;58.04;101811.17;106900;1259;22520;-51
2023/07/17 03:10:14;;;;;;;7.00;3.90;;;;;;;26.40;58.03;101810.85;107048;1263;25322;-51
2023/07/17 03:12:42;;;;;;;6.20;3.60;;;;;;;26.42;58.15;101807.17;106934;1256;25386;-51
2023/07/17 03:15:11;;;;;;;5.90;3.20;;;;;;;26.43;58.11;101807.44;106859;1262;22523;-50
2023/07/17 03:17:39;;;;;;;4.40;3.60;;;;;;;26.44;58.09;101810.70;106726;1261;25363;-50
2023/07/17 03:20:09;;;;;;;4.70;3.60;;;;;;;26.45;58.02;101814.39;106996;1259;25335;-50
2023/07/17 03:22:37;;;;;;;4.60;3.30;;;;;;;26.46;58.07;101819.30;106879;1266;25285;-50
2023/07/17 03:25:05;;;;;;;3.90;3.50;;;;;;;26.47;58.15;101822.41;106685;1265;24529;-50
2023/07/17 03:27:33;;;;;;;4.00;3.20;;;;;;;26.48;58.03;101822.89;107201;1253;23878;-50
2023/07/17 03:30:01;;;;;;;3.70;3.20;;;;;;;26.54;57.75;101820.84;107206;1253;22541;-51
2023/07/17 03:32:33;;;;;;;3.80;3.30;;;;;;;26.56;57.82;101820.70;106990;1268;25539;-50
2023/07/17 03:35:01;;;;;;;4.50;3.30;;;;;;;26.58;57.70;101820.75;106851;1265;25360;-51
2023/07/17 03:37:29;;;;;;;3.60;3.30;;;;;;;26.59;57.69;101819.95;106853;1271;25412;-51
2023/07/17 03:39:56;;;;;;;9.20;3.90;;;;;;;26.62;57.81;101818.89;107007;1265;22550;-50
2023/07/17 03:42:24;;;;;;;6.00;3.40;;;;;;;26.67;57.79;101818.70;107143;1264;25332;-50
2023/07/17 03:44:51;;;;;;;4.50;3.50;;;;;;;26.72;57.71;101816.35;107031;1263;25424;-50
2023/07/17 03:47:20;;;;;;;6.10;4.20;;;;;;;26.78;57.57;101819.64;107189;1255;22645;-50
2023/07/17 03:49:48;;;;;;;6.80;3.80;;;;;;;26.88;57.72;101815.52;106836;1265;25442;-50
2023/07/17 03:52:15;;;;;;;4.10;3.70;;;;;;;27.07;57.74;101823.90;107246;1259;22546;-50
2023/07/17 03:54:44;;;;;;;3.50;3.10;;;;;;;27.43;57.21;101823.17;107096;1263;25408;-50
2023/07/17 03:57:11;;;;;;;4.30;3.20;;;;;;;27.92;56.04;101821.20;107007;1264;25424;-50
2023/07/17 03:59:53;;;;;;;5.90;4.10;;;;;;;28.49;54.56;101822.73;106716;1267;25482;-51
2023/07/17 04:02:43;;;;;;;4.70;3.50;;;;;;;29.22;52.44;101823.41;106852;1260;25434;-49
2023/07/17 04:05:31;;;;;;;4.50;3.60;;;;;;;29.75;50.82;101824.77;106875;1259;25352;-50
2023/07/17 04:07:58;;;;;;;4.60;4.10;;;;;;;30.01;49.94;101826.23;107037;1257;25478;-49
2023/07/17 04:10:28;;;;;;;5.90;3.80;;;;;;;30.17;49.13;101829.17;107163;1257;25363;-49
2023/07/17 04:12:55;;;;;;;4.70;3.60;;;;;;;30.22;48.63;101834.25;107016;1265;25345;-50
2023/07/17 04:15:21;;;;;;;4.30;3.40;;;;;;;30.17;48.45;101833.24;106933;1257;25434;-50
2023/07/17 04:17:49;;;;;;;4.10;3.60;;;;;;;30.06;48.94;101831.38;106572;1267;25399;-49
2023/07/17 04:20:16;;;;;;;3.80;3.50;;;;;;;29.91;49.37;101836.47;107127;1258;25325;-49
2023/07/17 04:22:44;;;;;;;4.70;3.30;;;;;;;29.72;49.62;101838.20;106896;1257;25395;-49
2023/07/17 04:25:11;;;;;;;4.10;3.60;;;;;;;29.54;49.94;101841.34;107111;1265;25386;-49
2023/07/17 04:27:39;;;;;;;5.20;3.40;;;;;;;29.36;50.42;101840.40;106656;1269;25396;-50
2023/07/17 04:30:08;;;;;;;7.10;3.50;;;;;;;29.19;51.01;101840.05;107069;1255;25432;-49
2023/07/17 04:32:35;;;;;;;9.30;3.50;;;;;;;29.03;51.31;101836.55;106915;1256;25336;-49
2023/07/17 04:35:04;;;;;;;7.90;3.90;;;;;;;28.90;51.82;101837.41;107173;1260;25353;-50
2023/07/17 04:37:33;;;;;;;5.90;3.50;;;;;;;28.77;52.04;101836.14;107062;1259;25354;-49
2023/07/17 04:40:00;;;;;;;4.20;3.70;;;;;;;28.68;52.28;101840.86;106725;1262;25403;-49
2023/07/17 04:42:28;;;;;;;4.20;3.30;;;;;;;28.60;52.73;101843.96;106935;1262;25394;-49
2023/07/17 04:44:55;;;;;;;4.70;4.10;;;;;;;28.54;52.75;101843.53;106790;1265;25485;-49
2023/07/17 04:47:24;;;;;;;4.50;3.30;;;;;;;28.49;52.81;101845.04;107083;1257;25332;-50
2023/07/17 04:49:55;;;;;;;3.40;3.10;;;;;;;28.45;52.60;101842.31;106832;1270;25437;-49
2023/07/17 04:52:23;;;;;;;5.00;3.60;;;;;;;28.41;52.67;101842.80;107089;1264;22539;-50
2023/07/17 04:54:51;;;;;;;6.80;3.90;;;;;;;28.39;52.68;101842.98;106735;1255;22932;-50
2023/07/17 04:57:18;;;;;;;4.20;3.70;;;;;;;28.37;52.89;101845.09;106777;1253;25388;-50
2023/07/17 04:59:45;;;;;;;5.20;3.60;;;;;;;28.37;52.99;101844.96;106646;1269;25523;-50
2023/07/17 05:02:16;;;;;;;5.30;3.40;;;;;;;28.36;53.08;101844.14;106745;1266;25408;-50
2023/07/17 05:04:42;;;;;;;3.30;3.00;;;;;;;28.40;53.05;101847.38;106528;1268;25634;-51
2023/07/17 05:07:09;;;;;;;4.00;3.60;;;;;;;28.43;53.14;101847.89;107010;1260;25339;-50
2023/07/17 05:09:36;;;;;;;7.70;3.60;;;;;;;28.43;52.90;101850.86;106770;1270;25395;-49
2023/07/17 05:12:04;;;;;;;4.40;3.40;;;;;;;28.46;53.06;101852.79;106843;1267;25383;-50
2023/07/17 05:14:33;;;;;;;4.90;3.40;;;;;;;28.54;52.83;101853.77;107097;1262;25507;-50
2023/07/17 05:17:00;;;;;;;2.90;2.70;;;;;;;28.69;52.32;101851.87;106514;1261;24396;-49
2023/07/17 05:19:29;;;;;;;4.70;3.10;;;;;;;28.92;51.65;101854.41;106871;1265;25410;-49
2023/07/17 05:21:56;;;;;;;3.90;2.90;;;;;;;29.24;50.48;101850.58;106942;1256;25401;-49
2023/07/17 05:24:23;;;;;;;3.20;2.90;;;;;;;29.62;49.59;101852.88;106843;1270;25325;-49
2023/07/17 05:26:52;;;;;;;3.70;3.10;;;;;;;30.04;48.50;101849.21;106881;1266;25469;-49
2023/07/17 05:29:20;;;;;;;3.70;3.00;;;;;;;30.45;47.28;101846.73;106890;1263;25399;-49
2023/07/17 05:31:48;;;;;;;3.30;3.00;;;;;;;30.79;46.60;101845.71;106411;1269;25413;-49
2023/07/17 05:34:17;;;;;;;5.60;2.60;;;;;;;31.02;46.38;101844.98;106516;1264;22630;-50
2023/07/17 05:36:44;;;;;;;3.00;2.70;;;;;;;31.18;45.35;101845.31;106696;1253;25507;-49
2023/07/17 05:39:11;;;;;;;3.00;2.70;;;;;;;31.29;44.42;101845.41;106697;1257;25332;-49
2023/07/17 05:41:39;;;;;;;3.90;2.70;;;;;;;31.39;43.29;101851.16;106587;1267;25383;-50
2023/07/17 05:44:06;;;;;;;2.50;2.40;;;;;;;31.48;43.42;101848.85;106642;1260;25433;-50
2023/07/17 05:46:34;;;;;;;3.60;2.80;;;;;;;31.56;43.66;101846.67;106542;1267;22605;-50
2023/07/17 05:49:01;;;;;;;2.80;2.60;;;;;;;31.62;43.57;101844.63;106750;1254;25345;-49
2023/07/17 05:51:29;;;;;;;3.90;2.70;;;;;;;31.67;43.83;101847.03;106326;1269;25339;-49
2023/07/17 05:53:58;;;;;;;3.80;2.90;;;;;;;31.74;43.49;101847.34;106715;1255;22528;-49
2023/07/17 05:56:25;;;;;;;5.80;3.00;;;;;;;31.83;43.00;101848.56;106828;1253;25335;-49
2023/07/17 05:58:52;;;;;;;4.20;2.70;;;;;;;31.99;43.28;101854.44;106962;1262;25427;-51
2023/07/17 06:01:19;;;;;;;3.10;2.30;;;;;;;32.14;43.30;101856.21;107132;1265;25516;-50
2023/07/17 06:03:47;;;;;;;5.80;2.80;;;;;;;32.29;43.10;101858.59;106555;1267;24220;-49
2023/07/17 06:06:14;;;;;;;3.20;2.40;;;;;;;32.42;43.04;101857.28;107057;1262;25335;-49
2023/07/17 06:08:41;;;;;;;2.90;2.40;;;;;;;32.52;43.09;101861.05;107078;1260;25335;-49
2023/07/17 06:11:08;;;;;;;4.80;2.90;;;;;;;32.61;42.79;101863.02;107080;1262;25476;-50
2023/07/17 06:13:36;;;;;;;4.00;2.60;;;;;;;32.67;42.50;101862.09;106783;1265;25361;-49
2023/07/17 06:16:04;;;;;;;4.20;2.20;;;;;;;32.75;43.02;101863.42;107190;1259;22530;-49
2023/07/17 06:18:31;;;;;;;2.40;1.90;;;;;;;32.83;42.99;101859.70;107075;1262;24210;-49
2023/07/17 06:20:58;;;;;;;2.60;2.40;;;;;;;32.95;42.51;101861.97;107023;1264;25372;-49
2023/07/17 06:23:24;;;;;;;2.80;2.50;;;;;;;33.10;42.32;101863.71;107121;1265;25412;-49
2023/07/17 06:25:52;;;;;;;2.70;2.40;;;;;;;33.27;42.18;101861.58;106628;1268;24210;-49
2023/07/17 06:28:19;;;;;;;4.20;2.50;;;;;;;33.39;42.06;101862.16;107144;1268;25344;-49
2023/07/17 06:30:46;;;;;;;3.00;2.60;;;;;;;33.42;41.79;101864.98;106780;1258;24265;-49
2023/07/17 06:33:13;;;;;;;2.90;2.60;;;;;;;33.36;41.88;101868.46;106869;1268;25412;-49
2023/07/17 06:35:43;;;;;;;3.10;2.60;;;;;;;33.24;42.20;101859.27;106813;1271;25336;-48
2023/07/17 06:38:11;;;;;;;3.30;2.50;;;;;;;33.11;42.83;101856.91;107077;1260;25312;-49
2023/07/17 06:40:39;;;;;;;6.20;2.90;;;;;;;32.97;43.45;101856.77;106813;1256;25482;-49
2023/07/17 06:43:06;;;;;;;5.80;2.40;;;;;;;32.81;44.09;101855.03;107053;1264;25925;-49
2023/07/17 06:45:34;;;;;;;3.20;2.50;;;;;;;32.69;44.71;101857.52;107058;1262;25469;-50
2023/07/17 06:48:02;;;;;;;4.30;2.70;;;;;;;32.56;45.23;101857.55;106436;1267;22522;-48
2023/07/17 06:50:30;;;;;;;6.00;2.70;;;;;;;32.47;45.50;101856.65;106901;1271;24254;-53
2023/07/17 06:52:57;;;;;;;4.30;2.70;;;;;;;32.38;45.97;101857.66;106918;1263;23905;-50
2023/07/17 06:55:24;;;;;;;3.70;2.80;;;;;;;32.28;46.40;101858.81;106770;1270;26497;-49
2023/07/17 06:57:51;;;;;;;3.70;2.70;;;;;;;32.20;46.93;101860.00;106815;1259;25364;-51
2023/07/17 07:00:19;;;;;;;4.20;2.60;;;;;;;32.11;47.17;101860.98;107177;1257;25335;-50
2023/07/17 07:02:47;;;;;;;3.90;2.50;;;;;;;32.04;47.22;101858.05;106872;1267;25346;-51
2023/07/17 07:05:14;;;;;;;4.80;2.70;;;;;;;31.98;47.63;101856.61;106829;1271;25508;-50
2023/07/17 07:07:41;;;;;;;3.20;2.70;;;;;;;31.97;47.81;101855.54;107140;1262;22616;-50
2023/07/17 07:10:08;;;;;;;3.20;2.60;;;;;;;31.97;48.00;101855.14;107064;1257;24189;-50
2023/07/17 07:12:36;;;;;;;3.00;2.60;;;;;;;32.01;48.21;101856.71;106847;1256;25345;-49
2023/07/17 07:15:06;;;;;;;3.70;2.60;;;;;;;32.08;48.19;101859.27;107113;1263;25395;-49
2023/07/17 07:17:34;;;;;;;2.70;2.40;;;;;;;32.19;48.08;101859.37;106664;1268;23894;-49
2023/07/17 07:20:01;;;;;;;3.10;2.80;;;;;;;32.30;47.97;101859.56;106706;1262;25404;-49
2023/07/17 07:22:28;;;;;;;3.20;2.90;;;;;;;32.40;47.91;101857.11;107090;1265;25485;-49
2023/07/17 07:24:55;;;;;;;3.30;2.40;;;;;;;32.51;48.15;101856.83;106922;1263;25452;-49
2023/07/17 07:27:22;;;;;;;2.90;2.70;;;;;;;32.64;48.44;101857.10;106763;1258;25442;-49
2023/07/17 07:29:49;;;;;;;4.20;2.90;;;;;;;32.78;48.28;101857.48;106560;1266;25330;-49
2023/07/17 07:32:17;;;;;;;3.20;2.90;;;;;;;32.92;47.76;101858.16;106969;1263;25373;-50
2023/07/17 07:34:44;;;;;;;4.30;2.40;;;;;;;33.04;47.44;101855.89;107068;1257;25335;-50
2023/07/17 07:37:11;;;;;;;4.10;2.90;;;;;;;33.15;47.17;101854.25;107164;1263;25402;-49
2023/07/17 07:39:39;;;;;;;6.10;2.60;;;;;;;33.26;46.61;101854.58;107101;1263;25354;-49
2023/07/17 07:42:06;;;;;;;3.50;3.00;;;;;;;33.36;46.15;101855.32;106874;1267;25344;-50
2023/07/17 07:44:35;;;;;;;2.60;2.40;;;;;;;33.44;45.84;101852.70;107077;1263;25798;-50
2023/07/17 07:47:02;;;;;;;2.60;2.20;;;;;;;33.50;45.74;101849.23;107061;1271;22523;-50
2023/07/17 07:49:29;;;;;;;3.90;2.30;;;;;;;33.53;45.63;101849.05;107078;1265;25354;-49
2023/07/17 07:51:56;;;;;;;2.90;2.40;;;;;;;33.50;45.78;101844.73;107029;1263;25375;-48
2023/07/17 07:54:23;;;;;;;3.00;2.40;;;;;;;33.41;45.78;101846.35;107132;1264;25322;-49
2023/07/17 07:56:51;;;;;;;2.50;2.30;;;;;;;33.30;45.91;101843.38;106772;1269;280570;-50
2023/07/17 07:59:18;;;;;;;3.10;2.50;;;;;;;33.18;46.16;101839.87;107077;1264;25360;-50
2023/07/17 08:01:45;;;;;;;2.80;2.50;;;;;;;33.07;46.41;101840.97;107095;1265;25351;-49
2023/07/17 08:04:12;;;;;;;2.80;2.30;;;;;;;32.97;46.52;101839.34;107180;1257;25794;-50
2023/07/17 08:06:39;;;;;;;3.60;2.80;;;;;;;32.88;46.70;101837.89;107052;1263;24391;-50
2023/07/17 08:09:06;;;;;;;2.80;2.50;;;;;;;32.79;47.01;101837.67;107132;1267;25332;-49
2023/07/17 08:11:34;;;;;;;2.60;2.20;;;;;;;32.71;47.15;101837.89;107129;1267;25357;-49
2023/07/17 08:14:03;;;;;;;3.00;2.60;;;;;;;32.63;47.10;101843.17;106767;1261;25332;-51
2023/07/17 08:16:32;;;;;;;2.80;2.60;;;;;;;32.57;46.86;101841.89;106853;1269;25332;-50
2023/07/17 08:19:02;;;;;;;3.10;2.40;;;;;;;32.50;46.84;101844.35;107062;1260;22643;-50
2023/07/17 08:21:29;;;;;;;3.30;2.90;;;;;;;32.44;46.82;101843.30;106811;1272;25314;-50
2023/07/17 08:23:58;;;;;;;4.40;2.70;;;;;;;32.38;47.05;101842.11;107229;1265;25878;-50
2023/07/17 08:26:25;;;;;;;2.70;2.50;;;;;;;32.33;47.13;101843.28;106831;1271;25360;-50
2023/07/17 08:28:53;;;;;;;2.70;2.50;;;;;;;32.28;47.26;101845.01;107052;1263;25351;-50
2023/07/17 08:31:20;;;;;;;2.70;2.30;;;;;;;32.25;47.65;101846.25;107149;1260;24268;-50
2023/07/17 08:33:48;;;;;;;2.80;2.40;;;;;;;32.22;48.03;101845.59;107147;1253;25332;-49
2023/07/17 08:36:15;;;;;;;6.10;2.70;;;;;;;32.21;48.27;101845.85;107120;1256;25412;-50
2023/07/17 08:38:42;;;;;;;2.50;2.30;;;;;;;32.21;48.39;101848.00;106787;1267;25333;-50
2023/07/17 08:41:09;;;;;;;3.30;2.60;;;;;;;32.23;48.47;101851.80;107040;1272;22516;-50
2023/07/17 08:43:39;;;;;;;2.60;2.20;;;;;;;32.26;48.51;101850.45;107158;1256;25360;-49
2023/07/17 08:46:06;;;;;;;2.70;2.50;;;;;;;32.29;48.50;101849.19;107108;1259;25319;-49
2023/07/17 08:48:33;;;;;;;2.70;2.30;;;;;;;32.32;48.37;101850.37;106984;1268;25337;-49
2023/07/17 08:51:00;;;;;;;8.60;2.80;;;;;;;32.35;48.30;101848.66;106910;1256;25360;-50
2023/07/17 08:53:28;;;;;;;2.40;2.20;;;;;;;32.38;48.22;101851.96;106871;1270;24356;-48
2023/07/17 08:55:56;;;;;;;3.10;2.80;;;;;;;32.41;48.19;101850.59;106834;1268;25388;-47
2023/07/17 08:58:24;;;;;;;4.40;2.50;;;;;;;32.45;48.10;101853.66;106914;1260;25472;-50
2023/07/17 09:00:50;;;;;;;2.60;2.40;;;;;;;32.48;47.88;101854.60;106760;1266;25275;-50
2023/07/17 09:03:18;;;;;;;2.60;2.30;;;;;;;32.51;47.79;101859.36;106432;1268;25447;-50
2023/07/17 09:05:45;;;;;;;2.60;2.40;;;;;;;32.53;47.77;101856.08;106809;1265;25399;-50
2023/07/17 09:08:16;;;;;;;3.40;2.70;;;;;;;32.55;47.75;101858.40;106849;1269;25287;-50
2023/07/17 09:10:44;;;;;;;2.70;2.50;;;;;;;32.57;47.95;101855.70;106996;1265;25357;-51
2023/07/17 09:13:12;;;;;;;2.90;2.50;;;;;;;32.59;48.00;101853.36;107056;1264;25360;-50
2023/07/17 09:15:39;;;;;;;2.90;2.50;;;;;;;32.60;48.00;101853.89;107111;1263;25469;-50
2023/07/17 09:18:07;;;;;;;4.30;2.50;;;;;;;32.62;48.16;101853.00;107062;1265;25501;-50
2023/07/17 09:20:35;;;;;;;4.20;2.50;;;;;;;32.64;48.30;101853.23;107074;1256;25328;-50
2023/07/17 09:23:03;;;;;;;2.50;2.30;;;;;;;32.65;48.66;101852.02;106819;1266;22538;-50
2023/07/17 09:25:32;;;;;;;3.40;2.60;;;;;;;32.66;49.11;101855.45;107167;1256;25409;-49
2023/07/17 09:27:59;;;;;;;2.80;2.30;;;;;;;32.67;49.18;101852.01;107075;1264;25396;-49
2023/07/17 09:30:26;;;;;;;3.80;2.50;;;;;;;32.66;48.57;101851.94;107098;1260;22547;-49
2023/07/17 09:32:55;;;;;;;2.60;2.40;;;;;;;32.65;47.92;101850.02;106842;1265;25405;-48
2023/07/17 09:35:24;;;;;;;2.90;2.30;;;;;;;32.66;47.61;101851.60;106669;1266;25596;-50
2023/07/17 09:37:52;;;;;;;3.50;2.20;;;;;;;32.65;48.20;101852.51;106560;1268;25542;-50
2023/07/17 09:40:19;;;;;;;2.70;2.40;;;;;;;32.65;48.79;101847.67;106503;1268;25446;-49
2023/07/17 09:42:54;;;;;;;2.40;2.20;;;;;;;32.65;49.06;101849.87;107038;1256;24361;-49
2023/07/17 09:45:22;;;;;;;2.10;2.00;;;;;;;32.64;49.20;101849.58;107002;1259;24334;-49
2023/07/17 09:47:50;;;;;;;4.20;2.60;;;;;;;32.63;49.02;101850.36;107071;1258;25337;-49
2023/07/17 09:50:23;;;;;;;5.40;2.50;;;;;;;32.62;48.52;101849.06;107144;1265;25482;-49
2023/07/17 09:52:51;;;;;;;2.80;2.10;;;;;;;32.63;47.90;101845.93;107191;1263;25360;-50
2023/07/17 09:55:19;;;;;;;3.20;2.50;;;;;;;32.63;47.62;101845.70;107138;1255;25377;-50
2023/07/17 09:57:46;;;;;;;2.20;2.00;;;;;;;32.63;47.66;101847.67;107030;1257;25399;-51
2023/07/17 10:00:18;;;;;;;4.70;2.40;;;;;;;32.63;48.11;101845.02;107042;1263;24000;-49
2023/07/17 10:03:06;;;;;;;3.50;2.70;;;;;;;32.62;48.34;101843.10;106921;1267;22663;-49
2023/07/17 10:05:35;;;;;;;4.70;2.50;;;;;;;32.61;48.33;101841.06;107068;1256;22577;-50
2023/07/17 10:08:10;;;;;;;4.80;2.90;;;;;;;32.60;48.47;101836.48;107085;1262;25409;-48
2023/07/17 10:10:38;;;;;;;3.10;2.70;;;;;;;32.56;48.76;101842.83;107042;1270;24325;-50
2023/07/17 10:13:06;;;;;;;3.20;2.30;;;;;;;32.51;48.87;101843.73;107017;1265;25472;-49
2023/07/17 10:15:33;;;;;;;2.80;2.50;;;;;;;32.47;48.95;101839.58;106726;1274;25333;-49
2023/07/17 10:18:00;;;;;;;3.00;2.30;;;;;;;32.44;49.07;101841.52;107113;1265;25429;-49
2023/07/17 10:20:31;;;;;;;4.10;2.70;;;;;;;32.42;49.09;101839.91;107120;1263;25322;-49
2023/07/17 10:22:58;;;;;;;2.70;2.40;;;;;;;32.40;49.33;101839.20;106913;1260;25423;-48
2023/07/17 10:25:26;;;;;;;3.20;2.40;;;;;;;32.38;49.65;101840.23;107045;1266;25332;-49
2023/07/17 10:27:58;;;;;;;2.70;2.40;;;;;;;32.37;49.94;101838.21;106950;1267;22530;-48
2023/07/17 10:30:33;;;;;;;2.60;2.10;;;;;;;32.38;50.20;101834.18;107010;1267;24207;-53
2023/07/17 10:33:14;;;;;;;2.30;2.10;;;;;;;32.38;50.38;101835.91;107023;1254;25275;-51
2023/07/17 10:35:50;;;;;;;2.90;2.50;;;;;;;32.41;50.57;101834.77;106969;1256;25638;-50
2023/07/17 10:38:24;;;;;;;3.80;2.30;;;;;;;32.42;50.68;101831.29;106825;1272;25360;-50
2023/07/17 10:41:13;;;;;;;3.00;2.20;;;;;;;32.43;50.79;101830.28;107115;1261;25222;-51
2023/07/17 10:43:51;;;;;;;3.20;2.50;;;;;;;32.43;50.83;101830.25;107144;1256;25357;-51
2023/07/17 10:46:34;;;;;;;4.30;2.70;;;;;;;32.47;50.55;101829.92;107168;1256;23868;-50
2023/07/17 10:49:09;;;;;;;3.50;2.30;;;;;;;32.51;50.22;101825.58;107142;1265;25360;-50
2023/07/17 10:51:46;;;;;;;4.70;2.40;;;;;;;32.53;49.72;101824.94;107074;1256;25303;-50
2023/07/17 10:54:15;;;;;;;2.90;2.60;;;;;;;32.56;49.82;101815.23;106840;1267;25339;-50
2023/07/17 10:56:47;;;;;;;2.40;2.20;;;;;;;32.56;50.09;101815.31;107087;1266;25352;-50
2023/07/17 10:59:14;;;;;;;3.20;2.30;;;;;;;32.58;50.25;101817.67;106874;1267;22522;-51
2023/07/17 11:01:46;;;;;;;5.20;2.10;;;;;;;32.58;50.33;101809.73;106979;1258;22668;-50
2023/07/17 11:04:13;;;;;;;3.20;2.60;;;;;;;32.61;50.06;101812.35;107063;1252;25415;-49
2023/07/17 11:07:09;;;;;;;3.10;2.00;;;;;;;32.59;49.80;101807.09;106956;1273;22531;-50
2023/07/17 11:09:42;;;;;;;2.80;2.10;;;;;;;32.61;49.70;101806.20;106740;1269;25470;-50
2023/07/17 11:12:09;;;;;;;4.00;2.30;;;;;;;32.63;49.80;101806.79;107083;1256;24252;-50
2023/07/17 11:14:36;;;;;;;2.60;2.00;;;;;;;32.63;50.09;101806.05;106368;1266;25393;-49
2023/07/17 11:17:03;;;;;;;2.20;1.90;;;;;;;32.63;50.05;101802.05;106410;1267;26175;-50
2023/07/17 11:19:31;;;;;;;3.90;1.90;;;;;;;32.64;50.12;101806.98;106558;1262;25321;-50
2023/07/17 11:21:58;;;;;;;4.60;2.50;;;;;;;32.64;49.84;101808.60;106761;1266;25408;-50